createdAt,value
2017-11-29T00:01:06.411Z,7.39
2017-11-29T00:02:08.287Z,7.42
2017-11-29T00:03:10.163Z,7.37
2017-11-29T00:04:12.040Z,7.42
2017-11-29T00:05:13.854Z,7.35
2017-11-29T00:06:15.665Z,7.49
2017-11-29T00:07:17.542Z,7.40
2017-11-29T00:08:19.421Z,7.40
2017-11-29T00:09:21.295Z,7.42
2017-11-29T00:10:35.442Z,7.46
2017-11-29T00:11:37.318Z,7.49
2017-11-29T00:12:39.214Z,7.50
2017-11-29T00:13:41.075Z,7.52
2017-11-29T00:14:42.888Z,7.50
2017-11-29T00:15:44.701Z,7.45
2017-11-29T00:16:46.577Z,7.53
2017-11-29T00:17:48.452Z,7.60
2017-11-29T00:18:50.325Z,7.61
2017-11-29T00:20:04.471Z,7.46
2017-11-29T00:21:06.348Z,7.53
2017-11-29T00:22:08.226Z,7.57
2017-11-29T00:23:10.098Z,7.46
2017-11-29T00:24:11.914Z,7.58
2017-11-29T00:25:13.727Z,7.50
2017-11-29T00:26:15.599Z,7.53
2017-11-29T00:27:17.481Z,7.50
2017-11-29T00:28:19.354Z,7.68
2017-11-29T00:29:33.496Z,7.71
2017-11-29T00:30:35.369Z,7.69
2017-11-29T00:31:37.247Z,7.67
2017-11-29T00:32:39.121Z,7.68
2017-11-29T00:33:40.935Z,7.72
2017-11-29T00:34:42.747Z,7.68
2017-11-29T00:35:44.621Z,7.68
2017-11-29T00:36:46.497Z,7.68
2017-11-29T00:37:48.372Z,7.83
2017-11-29T00:39:02.518Z,7.79
2017-11-29T00:40:04.394Z,7.74
2017-11-29T00:41:06.272Z,7.71
2017-11-29T00:42:08.152Z,7.74
2017-11-29T00:43:09.963Z,7.74
2017-11-29T00:44:11.777Z,7.63
2017-11-29T00:45:13.646Z,7.58
2017-11-29T00:46:15.524Z,7.60
2017-11-29T00:47:17.397Z,7.58
2017-11-29T00:48:31.591Z,7.57
2017-11-29T00:49:33.468Z,7.63
2017-11-29T00:50:35.346Z,7.57
2017-11-29T00:51:37.221Z,7.49
2017-11-29T00:52:39.034Z,7.58
2017-11-29T00:53:40.847Z,7.63
2017-11-29T00:54:42.721Z,7.61
2017-11-29T00:55:44.603Z,7.68
2017-11-29T00:56:46.473Z,7.57
2017-11-29T00:58:00.618Z,7.69
2017-11-29T00:59:02.495Z,7.60
2017-11-29T01:00:04.376Z,7.60
2017-11-29T01:01:06.251Z,7.58
2017-11-29T01:02:08.065Z,7.64
2017-11-29T01:03:09.878Z,7.68
2017-11-29T01:04:11.752Z,7.63
2017-11-29T01:05:13.631Z,7.61
2017-11-29T01:06:15.506Z,7.60
2017-11-29T01:07:29.633Z,7.45
2017-11-29T01:08:31.447Z,7.57
2017-11-29T01:09:33.261Z,7.53
2017-11-29T01:10:35.078Z,7.63
2017-11-29T01:11:36.884Z,7.57
2017-11-29T01:12:38.762Z,7.64
2017-11-29T01:13:40.636Z,7.61
2017-11-29T01:14:42.490Z,7.49
2017-11-29T01:15:44.303Z,7.63
2017-11-29T01:16:58.446Z,7.63
2017-11-29T01:18:00.334Z,7.60
2017-11-29T01:19:02.207Z,7.57
2017-11-29T01:20:04.082Z,7.64
2017-11-29T01:21:05.899Z,7.67
2017-11-29T01:22:07.718Z,7.63
2017-11-29T01:23:09.588Z,7.53
2017-11-29T01:24:11.463Z,7.63
2017-11-29T01:25:13.336Z,7.52
2017-11-29T01:26:27.480Z,7.60
2017-11-29T01:27:29.369Z,7.49
2017-11-29T01:28:31.246Z,7.60
2017-11-29T01:29:33.121Z,7.60
2017-11-29T01:30:34.934Z,7.45
2017-11-29T01:31:36.747Z,7.53
2017-11-29T01:32:38.623Z,7.50
2017-11-29T01:33:40.501Z,7.50
2017-11-29T01:34:42.384Z,7.53
2017-11-29T01:35:56.520Z,7.45
2017-11-29T01:36:58.397Z,7.50
2017-11-29T01:38:00.279Z,7.48
2017-11-29T01:39:02.151Z,7.43
2017-11-29T01:40:03.967Z,7.37
2017-11-29T01:41:05.784Z,7.52
2017-11-29T01:42:07.672Z,7.53
2017-11-29T01:43:09.548Z,7.37
2017-11-29T01:44:11.423Z,7.42
2017-11-29T01:45:25.570Z,7.48
2017-11-29T01:46:27.446Z,7.35
2017-11-29T01:47:29.326Z,7.42
2017-11-29T01:48:31.201Z,7.43
2017-11-29T01:49:33.014Z,7.39
2017-11-29T01:50:34.827Z,7.43
2017-11-29T01:51:36.701Z,7.45
2017-11-29T01:52:38.578Z,7.43
2017-11-29T01:53:40.457Z,7.46
2017-11-29T01:54:54.606Z,7.39
2017-11-29T01:55:56.477Z,7.40
2017-11-29T01:56:58.357Z,7.35
2017-11-29T01:58:00.230Z,7.45
2017-11-29T01:59:02.044Z,7.39
2017-11-29T02:00:03.857Z,7.39
2017-11-29T02:01:05.748Z,7.42
2017-11-29T02:02:07.610Z,7.42
2017-11-29T02:03:09.485Z,7.42
2017-11-29T02:04:23.635Z,7.39
2017-11-29T02:05:25.511Z,7.43
2017-11-29T02:06:27.388Z,7.40
2017-11-29T02:07:29.261Z,7.45
2017-11-29T02:08:31.076Z,7.55
2017-11-29T02:09:32.887Z,7.45
2017-11-29T02:10:34.761Z,7.40
2017-11-29T02:11:36.641Z,7.37
2017-11-29T02:12:38.513Z,7.40
2017-11-29T02:13:52.709Z,7.39
2017-11-29T02:14:54.596Z,7.40
2017-11-29T02:15:56.461Z,7.42
2017-11-29T02:16:58.338Z,7.48
2017-11-29T02:18:00.150Z,7.53
2017-11-29T02:19:01.963Z,7.45
2017-11-29T02:20:03.839Z,7.57
2017-11-29T02:21:05.715Z,7.43
2017-11-29T02:22:07.590Z,7.50
2017-11-29T02:23:21.747Z,7.46
2017-11-29T02:24:23.624Z,7.42
2017-11-29T02:25:25.501Z,7.37
2017-11-29T02:26:27.376Z,7.30
2017-11-29T02:27:29.188Z,7.31
2017-11-29T02:28:31.021Z,7.28
2017-11-29T02:29:32.894Z,7.28
2017-11-29T02:30:34.770Z,7.25
2017-11-29T02:31:36.653Z,7.31
2017-11-29T02:32:50.798Z,7.32
2017-11-29T02:33:52.672Z,7.30
2017-11-29T02:34:54.552Z,7.35
2017-11-29T02:35:56.426Z,7.32
2017-11-29T02:36:58.239Z,7.30
2017-11-29T02:38:00.046Z,7.39
2017-11-29T02:39:01.924Z,7.32
2017-11-29T02:40:03.802Z,7.40
2017-11-29T02:41:05.683Z,7.43
2017-11-29T02:42:19.824Z,7.37
2017-11-29T02:43:21.699Z,7.34
2017-11-29T02:44:23.576Z,7.34
2017-11-29T02:45:25.453Z,7.30
2017-11-29T02:46:27.261Z,7.20
2017-11-29T02:47:29.074Z,7.24
2017-11-29T02:48:30.949Z,7.17
2017-11-29T02:49:32.829Z,7.17
2017-11-29T02:50:34.704Z,7.15
2017-11-29T02:51:48.852Z,7.15
2017-11-29T02:52:50.727Z,7.16
2017-11-29T02:53:52.604Z,7.20
2017-11-29T02:54:54.482Z,7.13
2017-11-29T02:55:56.297Z,7.21
2017-11-29T02:56:58.107Z,7.15
2017-11-29T02:57:59.979Z,7.20
2017-11-29T02:59:01.858Z,7.24
2017-11-29T03:00:03.733Z,7.21
2017-11-29T03:01:17.880Z,7.20
2017-11-29T03:02:19.757Z,7.17
2017-11-29T03:03:21.637Z,7.17
2017-11-29T03:04:23.513Z,7.21
2017-11-29T03:05:25.321Z,7.27
2017-11-29T03:06:27.133Z,7.27
2017-11-29T03:07:29.008Z,7.21
2017-11-29T03:08:30.887Z,7.17
2017-11-29T03:09:32.764Z,7.16
2017-11-29T03:10:46.912Z,7.13
2017-11-29T03:11:48.786Z,7.10
2017-11-29T03:12:50.664Z,7.06
2017-11-29T03:13:52.540Z,7.12
2017-11-29T03:14:54.352Z,7.07
2017-11-29T03:15:56.163Z,7.09
2017-11-29T03:16:58.039Z,7.05
2017-11-29T03:17:59.918Z,7.07
2017-11-29T03:19:01.795Z,7.10
2017-11-29T03:20:15.941Z,7.10
2017-11-29T03:21:17.815Z,7.06
2017-11-29T03:22:19.693Z,7.10
2017-11-29T03:23:21.575Z,7.15
2017-11-29T03:24:23.380Z,7.17
2017-11-29T03:25:25.193Z,7.13
2017-11-29T03:26:27.069Z,7.12
2017-11-29T03:27:28.948Z,6.99
2017-11-29T03:28:30.824Z,7.03
2017-11-29T03:29:44.971Z,6.99
2017-11-29T03:30:46.845Z,6.97
2017-11-29T03:31:48.720Z,7.06
2017-11-29T03:32:50.594Z,6.97
2017-11-29T03:33:52.407Z,6.98
2017-11-29T03:34:54.218Z,7.02
2017-11-29T03:35:56.093Z,7.07
2017-11-29T03:36:57.987Z,7.06
2017-11-29T03:37:59.857Z,7.05
2017-11-29T03:39:14.052Z,6.98
2017-11-29T03:40:15.926Z,7.02
2017-11-29T03:41:17.808Z,6.95
2017-11-29T03:42:19.710Z,7.03
2017-11-29T03:43:21.635Z,7.06
2017-11-29T03:44:23.540Z,7.07
2017-11-29T03:45:25.449Z,7.02
2017-11-29T03:46:27.328Z,6.97
2017-11-29T03:47:29.218Z,7.10
2017-11-29T03:48:43.369Z,7.07
2017-11-29T03:49:45.245Z,7.07
2017-11-29T03:50:47.124Z,7.09
2017-11-29T03:51:48.999Z,7.13
2017-11-29T03:52:50.810Z,7.07
2017-11-29T03:53:52.623Z,7.17
2017-11-29T03:54:54.499Z,7.15
2017-11-29T03:55:56.381Z,7.12
2017-11-29T03:56:58.254Z,7.13
2017-11-29T03:58:12.400Z,6.99
2017-11-29T03:59:14.273Z,7.09
2017-11-29T04:00:16.152Z,7.07
2017-11-29T04:01:18.027Z,7.05
2017-11-29T04:02:19.840Z,6.98
2017-11-29T04:03:21.659Z,7.09
2017-11-29T04:04:23.529Z,7.05
2017-11-29T04:05:25.408Z,7.02
2017-11-29T04:06:27.282Z,7.05
2017-11-29T04:07:41.431Z,7.07
2017-11-29T04:08:43.310Z,6.95
2017-11-29T04:09:45.190Z,6.98
2017-11-29T04:10:47.066Z,7.03
2017-11-29T04:11:48.879Z,7.07
2017-11-29T04:12:50.692Z,7.02
2017-11-29T04:13:52.569Z,6.94
2017-11-29T04:14:54.449Z,6.92
2017-11-29T04:15:56.324Z,6.91
2017-11-29T04:17:10.472Z,6.95
2017-11-29T04:18:12.345Z,6.89
2017-11-29T04:19:14.220Z,6.95
2017-11-29T04:20:16.096Z,6.89
2017-11-29T04:21:17.908Z,6.95
2017-11-29T04:22:19.720Z,6.79
2017-11-29T04:23:21.594Z,6.74
2017-11-29T04:24:23.482Z,6.77
2017-11-29T04:25:25.352Z,6.70
2017-11-29T04:26:39.481Z,6.74
2017-11-29T04:27:41.286Z,6.69
2017-11-29T04:28:43.098Z,6.79
2017-11-29T04:29:44.936Z,6.71
2017-11-29T04:30:46.810Z,6.81
2017-11-29T04:31:48.685Z,6.81
2017-11-29T04:32:50.511Z,6.85
2017-11-29T04:33:52.325Z,6.87
2017-11-29T04:34:54.138Z,6.81
2017-11-29T04:36:08.348Z,6.89
2017-11-29T04:37:10.227Z,6.91
2017-11-29T04:38:12.098Z,6.92
2017-11-29T04:39:13.972Z,6.81
2017-11-29T04:40:15.786Z,6.85
2017-11-29T04:41:17.594Z,6.88
2017-11-29T04:42:19.473Z,6.77
2017-11-29T04:43:21.350Z,6.94
2017-11-29T04:44:23.229Z,6.92
2017-11-29T04:45:37.375Z,6.80
2017-11-29T04:46:39.247Z,6.70
2017-11-29T04:47:41.125Z,6.70
2017-11-29T04:48:43.002Z,6.66
2017-11-29T04:49:44.811Z,6.64
2017-11-29T04:50:46.623Z,6.64
2017-11-29T04:51:48.498Z,6.64
2017-11-29T04:52:50.382Z,6.66
2017-11-29T04:53:52.253Z,6.70
2017-11-29T04:55:06.401Z,6.74
2017-11-29T04:56:08.270Z,6.73
2017-11-29T04:57:10.146Z,6.74
2017-11-29T04:58:12.023Z,6.77
2017-11-29T04:59:13.835Z,7.02
2017-11-29T05:00:15.649Z,6.94
2017-11-29T05:01:17.520Z,6.99
2017-11-29T05:02:19.401Z,6.92
2017-11-29T05:03:21.277Z,6.92
2017-11-29T05:04:35.470Z,6.98
2017-11-29T05:05:37.345Z,6.98
2017-11-29T05:06:39.222Z,6.99
2017-11-29T05:07:41.100Z,7.05
2017-11-29T05:08:42.924Z,6.99
2017-11-29T05:09:44.727Z,7.10
2017-11-29T05:10:46.601Z,7.15
2017-11-29T05:11:48.481Z,7.09
2017-11-29T05:12:50.358Z,7.07
2017-11-29T05:14:04.504Z,7.20
2017-11-29T05:15:06.377Z,7.10
2017-11-29T05:16:08.255Z,7.12
2017-11-29T05:17:10.132Z,7.23
2017-11-29T05:18:11.943Z,7.15
2017-11-29T05:19:13.755Z,7.16
2017-11-29T05:20:15.633Z,7.07
2017-11-29T05:21:17.514Z,7.16
2017-11-29T05:22:19.386Z,7.15
2017-11-29T05:23:33.531Z,7.12
2017-11-29T05:24:35.406Z,7.09
2017-11-29T05:25:37.287Z,7.09
2017-11-29T05:26:39.160Z,6.99
2017-11-29T05:27:40.973Z,7.03
2017-11-29T05:28:42.784Z,6.97
2017-11-29T05:29:44.660Z,7.07
2017-11-29T05:30:46.503Z,7.02
2017-11-29T05:31:48.316Z,7.05
2017-11-29T05:33:02.459Z,7.05
2017-11-29T05:34:04.344Z,6.94
2017-11-29T05:35:06.219Z,6.98
2017-11-29T05:36:08.099Z,7.09
2017-11-29T05:37:09.909Z,7.12
2017-11-29T05:38:11.721Z,7.07
2017-11-29T05:39:13.596Z,7.03
2017-11-29T05:40:15.480Z,6.99
2017-11-29T05:41:17.350Z,7.10
2017-11-29T05:42:31.494Z,7.10
2017-11-29T05:43:33.370Z,7.10
2017-11-29T05:44:35.253Z,7.13
2017-11-29T05:45:37.130Z,7.09
2017-11-29T05:46:38.941Z,7.21
2017-11-29T05:47:40.752Z,7.10
2017-11-29T05:48:42.630Z,7.25
2017-11-29T05:49:44.509Z,7.16
2017-11-29T05:50:46.422Z,7.12
2017-11-29T05:52:00.535Z,7.23
2017-11-29T05:53:02.411Z,7.24
2017-11-29T05:54:04.289Z,7.20
2017-11-29T05:55:06.165Z,7.27
2017-11-29T05:56:07.975Z,7.21
2017-11-29T05:57:09.791Z,7.27
2017-11-29T05:58:11.667Z,7.30
2017-11-29T05:59:13.546Z,7.37
2017-11-29T06:00:15.437Z,7.31
2017-11-29T06:01:29.573Z,7.32
2017-11-29T06:02:31.447Z,7.32
2017-11-29T06:03:33.325Z,7.35
2017-11-29T06:04:35.201Z,7.30
2017-11-29T06:05:37.013Z,7.35
2017-11-29T06:06:38.824Z,7.42
2017-11-29T06:07:40.700Z,7.39
2017-11-29T06:08:42.579Z,7.31
2017-11-29T06:09:44.456Z,7.24
2017-11-29T06:10:58.602Z,7.27
2017-11-29T06:12:00.474Z,7.23
2017-11-29T06:13:02.352Z,7.20
2017-11-29T06:14:04.229Z,7.32
2017-11-29T06:15:06.040Z,7.34
2017-11-29T06:16:07.854Z,7.28
2017-11-29T06:17:09.732Z,7.30
2017-11-29T06:18:11.612Z,7.23
2017-11-29T06:19:13.489Z,7.28
2017-11-29T06:20:27.684Z,7.24
2017-11-29T06:21:29.557Z,7.10
2017-11-29T06:22:31.437Z,7.10
2017-11-29T06:23:33.314Z,7.17
2017-11-29T06:24:35.126Z,7.15
2017-11-29T06:25:36.939Z,7.07
2017-11-29T06:26:38.821Z,7.13
2017-11-29T06:27:40.699Z,6.97
2017-11-29T06:28:42.578Z,6.99
2017-11-29T06:29:56.775Z,7.05
2017-11-29T06:30:58.658Z,6.92
2017-11-29T06:32:00.535Z,7.06
2017-11-29T06:33:02.411Z,7.13
2017-11-29T06:34:04.229Z,6.98
2017-11-29T06:35:06.043Z,6.98
2017-11-29T06:36:07.922Z,7.03
2017-11-29T06:37:09.801Z,7.05
2017-11-29T06:38:11.680Z,7.07
2017-11-29T06:39:25.826Z,7.20
2017-11-29T06:40:27.702Z,7.24
2017-11-29T06:41:29.580Z,7.21
2017-11-29T06:42:31.456Z,7.21
2017-11-29T06:43:33.267Z,7.25
2017-11-29T06:44:35.081Z,7.23
2017-11-29T06:45:36.960Z,7.32
2017-11-29T06:46:38.838Z,7.30
2017-11-29T06:47:40.719Z,7.32
2017-11-29T06:48:54.866Z,7.37
2017-11-29T06:49:56.742Z,7.37
2017-11-29T06:50:58.623Z,7.39
2017-11-29T06:52:00.501Z,7.37
2017-11-29T06:53:02.321Z,7.34
2017-11-29T06:54:04.135Z,7.37
2017-11-29T06:55:06.020Z,7.37
2017-11-29T06:56:07.899Z,7.32
2017-11-29T06:57:09.780Z,7.31
2017-11-29T06:58:23.988Z,7.32
2017-11-29T06:59:25.859Z,7.34
2017-11-29T07:00:27.742Z,7.30
2017-11-29T07:01:29.627Z,7.21
2017-11-29T07:02:31.438Z,7.20
2017-11-29T07:03:33.270Z,7.21
2017-11-29T07:04:35.137Z,7.21
2017-11-29T07:05:37.027Z,7.17
2017-11-29T07:06:38.902Z,7.24
2017-11-29T07:07:53.053Z,7.17
2017-11-29T07:08:54.930Z,7.23
2017-11-29T07:09:56.809Z,7.27
2017-11-29T07:10:58.689Z,7.27
2017-11-29T07:12:00.504Z,7.28
2017-11-29T07:13:02.321Z,7.25
2017-11-29T07:14:04.204Z,7.21
2017-11-29T07:15:06.085Z,7.16
2017-11-29T07:16:07.971Z,7.13
2017-11-29T07:17:22.114Z,7.17
2017-11-29T07:18:23.991Z,7.21
2017-11-29T07:19:25.872Z,7.13
2017-11-29T07:20:27.754Z,7.23
2017-11-29T07:21:29.575Z,7.20
2017-11-29T07:22:31.384Z,7.28
2017-11-29T07:23:33.267Z,7.23
2017-11-29T07:24:35.148Z,7.30
2017-11-29T07:25:37.028Z,7.31
2017-11-29T07:26:51.177Z,7.28
2017-11-29T07:27:53.055Z,7.31
2017-11-29T07:28:54.948Z,7.35
2017-11-29T07:29:56.841Z,7.31
2017-11-29T07:30:58.647Z,7.45
2017-11-29T07:32:00.465Z,7.45
2017-11-29T07:33:02.344Z,7.34
2017-11-29T07:34:04.229Z,7.46
2017-11-29T07:35:06.110Z,7.37
2017-11-29T07:36:20.264Z,7.52
2017-11-29T07:37:22.142Z,7.48
2017-11-29T07:38:24.026Z,7.50
2017-11-29T07:39:25.906Z,7.49
2017-11-29T07:40:27.723Z,7.37
2017-11-29T07:41:29.535Z,7.37
2017-11-29T07:42:31.417Z,7.48
2017-11-29T07:43:33.299Z,7.39
2017-11-29T07:44:35.186Z,7.34
2017-11-29T07:45:49.326Z,7.31
2017-11-29T07:46:51.205Z,7.32
2017-11-29T07:47:53.086Z,7.30
2017-11-29T07:48:54.967Z,7.27
2017-11-29T07:49:56.784Z,7.13
2017-11-29T07:50:58.598Z,7.23
2017-11-29T07:52:00.482Z,7.23
2017-11-29T07:53:02.365Z,7.12
2017-11-29T07:54:04.258Z,7.12
2017-11-29T07:55:18.403Z,7.12
2017-11-29T07:56:20.282Z,7.05
2017-11-29T07:57:22.168Z,7.07
2017-11-29T07:58:24.046Z,7.10
2017-11-29T07:59:25.871Z,7.12
2017-11-29T08:00:27.678Z,7.07
2017-11-29T08:01:29.560Z,6.97
2017-11-29T08:02:31.441Z,7.03
2017-11-29T08:03:33.326Z,6.94
2017-11-29T08:04:47.456Z,6.92
2017-11-29T08:05:49.297Z,6.92
2017-11-29T08:06:51.180Z,6.87
2017-11-29T08:07:53.061Z,6.80
2017-11-29T08:08:54.923Z,6.84
2017-11-29T08:09:56.735Z,6.91
2017-11-29T08:10:58.551Z,6.88
2017-11-29T08:12:00.441Z,6.85
2017-11-29T08:13:02.325Z,6.88
2017-11-29T08:14:16.514Z,6.98
2017-11-29T08:15:18.392Z,6.94
2017-11-29T08:16:20.274Z,6.92
2017-11-29T08:17:22.159Z,6.99
2017-11-29T08:18:23.973Z,6.94
2017-11-29T08:19:25.788Z,6.91
2017-11-29T08:20:27.747Z,6.97
2017-11-29T08:21:29.554Z,6.80
2017-11-29T08:22:31.436Z,6.87
2017-11-29T08:23:45.587Z,6.73
2017-11-29T08:24:47.466Z,6.87
2017-11-29T08:25:49.357Z,6.79
2017-11-29T08:26:51.236Z,6.73
2017-11-29T08:27:53.050Z,6.71
2017-11-29T08:28:54.867Z,6.84
2017-11-29T08:29:56.748Z,6.76
2017-11-29T08:30:58.633Z,6.73
2017-11-29T08:32:00.513Z,6.70
2017-11-29T08:33:14.714Z,6.66
2017-11-29T08:34:16.593Z,6.64
2017-11-29T08:35:18.478Z,6.64
2017-11-29T08:36:20.362Z,6.56
2017-11-29T08:37:22.177Z,6.66
2017-11-29T08:38:23.996Z,6.59
2017-11-29T08:39:25.878Z,6.62
2017-11-29T08:40:27.761Z,6.69
2017-11-29T08:41:29.643Z,6.67
2017-11-29T08:42:43.848Z,6.69
2017-11-29T08:43:45.722Z,6.69
2017-11-29T08:44:47.609Z,6.67
2017-11-29T08:45:49.493Z,6.74
2017-11-29T08:46:51.310Z,6.67
2017-11-29T08:47:53.126Z,6.73
2017-11-29T08:48:55.008Z,6.74
2017-11-29T08:49:56.891Z,6.73
2017-11-29T08:50:58.781Z,6.85
2017-11-29T08:52:12.978Z,6.80
2017-11-29T08:53:14.858Z,6.94
2017-11-29T08:54:16.739Z,6.94
2017-11-29T08:55:18.625Z,7.02
2017-11-29T08:56:20.442Z,6.99
2017-11-29T08:57:22.292Z,6.97
2017-11-29T08:58:24.142Z,7.13
2017-11-29T08:59:26.025Z,7.12
2017-11-29T09:00:27.907Z,7.25
2017-11-29T09:01:42.058Z,7.27
2017-11-29T09:02:43.937Z,7.23
2017-11-29T09:03:45.821Z,7.30
2017-11-29T09:04:47.703Z,7.31
2017-11-29T09:05:49.517Z,7.39
2017-11-29T09:06:51.334Z,7.42
2017-11-29T09:07:53.215Z,7.27
2017-11-29T09:08:55.100Z,7.42
2017-11-29T09:09:56.983Z,7.35
2017-11-29T09:11:11.135Z,7.23
2017-11-29T09:12:13.015Z,7.06
2017-11-29T09:13:14.899Z,7.03
2017-11-29T09:14:16.782Z,6.95
2017-11-29T09:15:18.598Z,6.95
2017-11-29T09:16:20.437Z,6.91
2017-11-29T09:17:22.303Z,6.89
2017-11-29T09:18:24.179Z,6.87
2017-11-29T09:19:26.060Z,6.85
2017-11-29T09:20:40.212Z,6.85
2017-11-29T09:21:42.092Z,6.85
2017-11-29T09:22:43.980Z,6.80
2017-11-29T09:23:45.860Z,6.89
2017-11-29T09:24:47.675Z,6.99
2017-11-29T09:25:49.492Z,6.92
2017-11-29T09:26:51.372Z,6.94
2017-11-29T09:27:53.259Z,6.97
2017-11-29T09:28:55.140Z,6.99
2017-11-29T09:30:09.289Z,6.88
2017-11-29T09:31:11.169Z,6.89
2017-11-29T09:32:13.052Z,6.85
2017-11-29T09:33:14.936Z,6.84
2017-11-29T09:34:16.752Z,6.81
2017-11-29T09:35:18.568Z,6.92
2017-11-29T09:36:20.453Z,6.81
2017-11-29T09:37:22.336Z,6.91
2017-11-29T09:38:24.221Z,6.98
2017-11-29T09:39:38.381Z,7.09
2017-11-29T09:40:40.251Z,7.09
2017-11-29T09:41:42.134Z,7.10
2017-11-29T09:42:44.019Z,7.16
2017-11-29T09:43:45.835Z,7.27
2017-11-29T09:44:47.651Z,7.23
2017-11-29T09:45:49.532Z,7.20
2017-11-29T09:46:51.416Z,7.21
2017-11-29T09:47:53.260Z,7.30
2017-11-29T09:49:07.408Z,7.37
2017-11-29T09:50:09.289Z,7.39
2017-11-29T09:51:11.173Z,7.40
2017-11-29T09:52:13.055Z,7.53
2017-11-29T09:53:14.872Z,7.45
2017-11-29T09:54:16.693Z,7.53
2017-11-29T09:55:18.578Z,7.71
2017-11-29T09:56:20.461Z,7.68
2017-11-29T09:57:22.343Z,7.57
2017-11-29T09:58:36.540Z,7.53
2017-11-29T09:59:38.425Z,7.58
2017-11-29T10:00:40.302Z,7.57
2017-11-29T10:01:42.189Z,7.49
2017-11-29T10:02:44.011Z,7.63
2017-11-29T10:03:45.828Z,7.49
2017-11-29T10:04:47.715Z,7.60
2017-11-29T10:05:49.611Z,7.57
2017-11-29T10:06:51.477Z,7.61
2017-11-29T10:08:05.629Z,7.71
2017-11-29T10:09:07.517Z,7.71
2017-11-29T10:10:09.390Z,7.71
2017-11-29T10:11:11.272Z,7.72
2017-11-29T10:12:13.091Z,7.64
2017-11-29T10:13:14.906Z,7.69
2017-11-29T10:14:16.792Z,7.77
2017-11-29T10:15:18.673Z,7.72
2017-11-29T10:16:20.555Z,7.82
2017-11-29T10:17:34.708Z,7.92
2017-11-29T10:18:36.586Z,7.86
2017-11-29T10:19:38.471Z,7.97
2017-11-29T10:20:40.354Z,8.01
2017-11-29T10:21:42.176Z,8.08
2017-11-29T10:22:43.984Z,8.20
2017-11-29T10:23:45.824Z,8.26
2017-11-29T10:24:47.669Z,8.34
2017-11-29T10:25:49.492Z,8.34
2017-11-29T10:27:03.690Z,8.34
2017-11-29T10:28:05.572Z,8.28
2017-11-29T10:29:07.452Z,8.44
2017-11-29T10:30:09.335Z,8.52
2017-11-29T10:31:11.156Z,8.56
2017-11-29T10:32:12.979Z,8.55
2017-11-29T10:33:14.859Z,8.73
2017-11-29T10:34:16.744Z,8.77
2017-11-29T10:35:18.628Z,8.94
2017-11-29T10:36:32.780Z,8.96
2017-11-29T10:37:34.659Z,8.94
2017-11-29T10:38:36.545Z,9.04
2017-11-29T10:39:38.428Z,9.02
2017-11-29T10:40:40.251Z,9.13
2017-11-29T10:41:42.072Z,9.28
2017-11-29T10:42:43.953Z,9.31
2017-11-29T10:43:45.842Z,9.21
2017-11-29T10:44:47.722Z,9.29
2017-11-29T10:46:01.922Z,9.29
2017-11-29T10:47:03.804Z,9.32
2017-11-29T10:48:05.690Z,9.33
2017-11-29T10:49:07.573Z,9.29
2017-11-29T10:50:09.395Z,9.39
2017-11-29T10:51:11.215Z,9.48
2017-11-29T10:52:13.098Z,9.35
2017-11-29T10:53:14.982Z,9.36
2017-11-29T10:54:16.866Z,9.31
2017-11-29T10:55:31.068Z,9.33
2017-11-29T10:56:32.949Z,9.32
2017-11-29T10:57:34.832Z,9.40
2017-11-29T10:58:36.716Z,9.51
2017-11-29T10:59:38.533Z,9.40
2017-11-29T11:00:40.353Z,9.42
2017-11-29T11:01:42.233Z,9.42
2017-11-29T11:02:44.122Z,9.56
2017-11-29T11:03:46.009Z,9.65
2017-11-29T11:05:00.209Z,9.68
2017-11-29T11:06:02.096Z,9.64
2017-11-29T11:07:03.974Z,9.54
2017-11-29T11:08:05.858Z,9.58
2017-11-29T11:09:07.678Z,9.58
2017-11-29T11:10:09.533Z,9.51
2017-11-29T11:11:11.423Z,9.46
2017-11-29T11:12:13.307Z,9.48
2017-11-29T11:13:15.191Z,9.57
2017-11-29T11:14:29.349Z,9.51
2017-11-29T11:15:31.230Z,9.36
2017-11-29T11:16:33.115Z,9.43
2017-11-29T11:17:35.008Z,9.42
2017-11-29T11:18:36.822Z,9.40
2017-11-29T11:19:38.639Z,9.43
2017-11-29T11:20:40.522Z,9.46
2017-11-29T11:21:42.412Z,9.47
2017-11-29T11:22:44.291Z,9.48
2017-11-29T11:23:58.495Z,9.43
2017-11-29T11:25:00.376Z,9.50
2017-11-29T11:26:02.257Z,9.60
2017-11-29T11:27:04.143Z,9.61
2017-11-29T11:28:05.980Z,9.66
2017-11-29T11:29:07.802Z,9.72
2017-11-29T11:30:09.700Z,9.68
2017-11-29T11:31:11.571Z,9.57
2017-11-29T11:32:13.458Z,9.51
2017-11-29T11:33:27.637Z,9.38
2017-11-29T11:34:29.546Z,9.32
2017-11-29T11:35:31.431Z,9.29
2017-11-29T11:36:33.310Z,9.15
2017-11-29T11:37:35.127Z,9.04
2017-11-29T11:38:36.947Z,8.98
2017-11-29T11:39:38.830Z,8.86
2017-11-29T11:40:40.714Z,8.91
2017-11-29T11:41:42.605Z,8.94
2017-11-29T11:42:56.800Z,9.13
2017-11-29T11:43:58.834Z,9.13
2017-11-29T11:45:00.717Z,9.17
2017-11-29T11:46:02.600Z,9.20
2017-11-29T11:47:04.418Z,9.26
2017-11-29T11:48:06.237Z,9.28
2017-11-29T11:49:08.132Z,9.28
2017-11-29T11:50:10.025Z,9.31
2017-11-29T11:51:11.893Z,9.13
2017-11-29T11:52:26.047Z,9.11
2017-11-29T11:53:27.927Z,8.98
2017-11-29T11:54:29.813Z,8.92
2017-11-29T11:55:31.696Z,8.83
2017-11-29T11:56:33.519Z,8.74
2017-11-29T11:57:35.338Z,8.83
2017-11-29T11:58:37.225Z,8.89
2017-11-29T11:59:39.113Z,8.81
2017-11-29T12:00:40.996Z,8.89
2017-11-29T12:01:55.150Z,8.96
2017-11-29T12:02:57.031Z,8.92
2017-11-29T12:03:58.915Z,8.95
2017-11-29T12:05:00.799Z,8.99
2017-11-29T12:06:02.616Z,8.95
2017-11-29T12:07:04.436Z,9.08
2017-11-29T12:08:06.318Z,8.99
2017-11-29T12:09:08.208Z,9.02
2017-11-29T12:10:10.091Z,9.08
2017-11-29T12:11:24.240Z,9.10
2017-11-29T12:12:26.120Z,9.04
2017-11-29T12:13:28.012Z,9.10
2017-11-29T12:14:29.891Z,8.95
2017-11-29T12:15:31.710Z,8.86
2017-11-29T12:16:33.530Z,8.86
2017-11-29T12:17:35.426Z,8.68
2017-11-29T12:18:37.309Z,8.66
2017-11-29T12:19:39.193Z,8.66
2017-11-29T12:20:53.353Z,8.61
2017-11-29T12:21:55.262Z,8.47
2017-11-29T12:22:57.147Z,8.53
2017-11-29T12:23:59.031Z,8.56
2017-11-29T12:25:00.850Z,8.58
2017-11-29T12:26:02.671Z,8.63
2017-11-29T12:27:04.555Z,8.62
2017-11-29T12:28:06.443Z,8.63
2017-11-29T12:29:08.328Z,8.70
2017-11-29T12:30:22.482Z,8.63
2017-11-29T12:31:24.362Z,8.62
2017-11-29T12:32:26.251Z,8.61
2017-11-29T12:33:28.136Z,8.66
2017-11-29T12:34:29.954Z,8.76
2017-11-29T12:35:31.773Z,8.74
2017-11-29T12:36:33.655Z,8.76
2017-11-29T12:37:35.543Z,8.70
2017-11-29T12:38:37.428Z,8.55
2017-11-29T12:39:51.578Z,8.62
2017-11-29T12:40:53.469Z,8.66
2017-11-29T12:41:55.344Z,8.61
2017-11-29T12:42:57.227Z,8.61
2017-11-29T12:43:59.045Z,8.55
2017-11-29T12:45:00.864Z,8.45
2017-11-29T12:46:02.746Z,8.52
2017-11-29T12:47:04.630Z,8.52
2017-11-29T12:48:06.515Z,8.55
2017-11-29T12:49:20.722Z,8.48
2017-11-29T12:50:22.603Z,8.45
2017-11-29T12:51:24.499Z,8.45
2017-11-29T12:52:26.372Z,8.34
2017-11-29T12:53:28.193Z,8.50
2017-11-29T12:54:30.011Z,8.53
2017-11-29T12:55:31.896Z,8.56
2017-11-29T12:56:33.780Z,8.65
2017-11-29T12:57:35.662Z,8.56
2017-11-29T12:58:49.816Z,8.77
2017-11-29T12:59:51.697Z,8.77
2017-11-29T13:00:53.580Z,8.74
2017-11-29T13:01:55.464Z,8.80
2017-11-29T13:02:57.282Z,8.74
2017-11-29T13:03:59.099Z,8.79
2017-11-29T13:05:00.982Z,8.77
2017-11-29T13:06:02.870Z,8.70
2017-11-29T13:07:04.748Z,8.77
2017-11-29T13:08:18.952Z,8.76
2017-11-29T13:09:20.834Z,8.70
2017-11-29T13:10:22.716Z,8.63
2017-11-29T13:11:24.600Z,8.45
2017-11-29T13:12:26.421Z,8.48
2017-11-29T13:13:28.236Z,8.50
2017-11-29T13:14:30.123Z,8.50
2017-11-29T13:15:32.013Z,8.37
2017-11-29T13:16:33.900Z,8.34
2017-11-29T13:17:48.052Z,8.30
2017-11-29T13:18:49.931Z,8.18
2017-11-29T13:19:51.819Z,8.18
2017-11-29T13:20:53.699Z,8.25
2017-11-29T13:21:55.519Z,8.26
2017-11-29T13:22:57.338Z,8.25
2017-11-29T13:23:59.220Z,8.20
2017-11-29T13:25:01.106Z,8.33
2017-11-29T13:26:02.989Z,8.20
2017-11-29T13:27:17.140Z,8.20
2017-11-29T13:28:19.021Z,8.26
2017-11-29T13:29:21.231Z,8.10
2017-11-29T13:30:23.089Z,8.15
2017-11-29T13:31:24.905Z,8.29
2017-11-29T13:32:26.714Z,8.28
2017-11-29T13:33:28.598Z,8.34
2017-11-29T13:34:30.482Z,8.34
2017-11-29T13:35:32.362Z,8.40
2017-11-29T13:36:46.514Z,8.26
2017-11-29T13:37:48.394Z,8.25
2017-11-29T13:38:50.278Z,8.15
2017-11-29T13:39:52.158Z,8.19
2017-11-29T13:40:53.975Z,8.16
2017-11-29T13:41:55.791Z,8.22
2017-11-29T13:42:57.672Z,8.29
2017-11-29T13:43:59.517Z,8.19
2017-11-29T13:45:01.362Z,8.12
2017-11-29T13:46:15.512Z,8.08
2017-11-29T13:47:17.391Z,8.08
2017-11-29T13:48:19.275Z,8.10
2017-11-29T13:49:21.156Z,8.07
2017-11-29T13:50:23.000Z,8.05
2017-11-29T13:51:24.790Z,8.02
2017-11-29T13:52:26.674Z,8.05
2017-11-29T13:53:28.556Z,8.00
2017-11-29T13:54:30.437Z,7.98
2017-11-29T13:55:44.585Z,7.95
2017-11-29T13:56:46.468Z,8.00
2017-11-29T13:57:48.353Z,8.01
2017-11-29T13:58:50.235Z,7.93
2017-11-29T13:59:52.051Z,7.97
2017-11-29T14:00:53.868Z,7.83
2017-11-29T14:01:55.747Z,7.80